Time;durP1;ratioP1;P1;durP2;ratioP2;P2;SDS_P1;SDS_P2;PMS_P1;PMS_P2;Temp;Humidity;BMP_temperature;BMP_pressure;BME280_temperature;BME280_humidity;BME280_pressure;Samples;Min_cycle;Max_cycle;Signal;HPM_P1;HPM_P2
2023/05/17 00:02:16;;;;;;;;;;;8.30;99.90;;;;;;5014644;28;19933;-69
2023/05/17 00:04:43;;;;;;;;;;;8.30;99.90;;;;;;5014206;28;19932;-69
2023/05/17 00:07:10;;;;;;;;;;;8.20;99.90;;;;;;5029991;28;19933;-69
2023/05/17 00:09:37;;;;;;;;;;;8.20;99.90;;;;;;5025731;28;20304;-68
2023/05/17 00:12:04;;;;;;;;;;;8.10;99.90;;;;;;5014161;28;19932;-68
2023/05/17 00:14:32;;;;;;;;;;;8.10;99.90;;;;;;5014275;28;19926;-68
2023/05/17 00:16:59;;;;;;;;;;;8.10;99.90;;;;;;5024198;28;19932;-68
2023/05/17 00:19:28;;;;;;;;;;;8.00;99.90;;;;;;5018778;28;20364;-68
2023/05/17 00:21:54;;;;;;;;;;;8.00;99.90;;;;;;5009867;28;19941;-69
2023/05/17 00:24:21;;;;;;;;;;;8.00;99.90;;;;;;5014031;28;19929;-69
2023/05/17 00:26:48;;;;;;;;;;;7.90;99.90;;;;;;5018120;28;19933;-68
2023/05/17 00:29:15;;;;;;;;;;;8.00;99.90;;;;;;5008637;28;19932;-70
2023/05/17 00:31:44;;;;;;;;;;;7.90;99.90;;;;;;5024234;28;19936;-68
2023/05/17 00:34:11;;;;;;;;;;;8.00;99.90;;;;;;5025957;28;19932;-69
2023/05/17 00:36:37;;;;;;;;;;;7.90;99.90;;;;;;5029713;28;19936;-68
2023/05/17 00:39:04;;;;;;;;;;;8.00;99.90;;;;;;5029000;28;19926;-68
2023/05/17 00:41:31;;;;;;;;;;;8.10;99.90;;;;;;5013856;28;20372;-68
2023/05/17 00:43:58;;;;;;;;;;;8.10;99.90;;;;;;5028951;28;19929;-68
2023/05/17 00:46:25;;;;;;;;;;;8.10;99.90;;;;;;5013055;28;19926;-68
2023/05/17 00:48:53;;;;;;;;;;;8.00;99.90;;;;;;5024394;28;20321;-68
2023/05/17 00:51:20;;;;;;;;;;;8.00;99.90;;;;;;5016812;28;19926;-68
2023/05/17 00:53:47;;;;;;;;;;;8.00;99.90;;;;;;5017570;28;19930;-68
2023/05/17 00:56:14;;;;;;;;;;;8.00;99.90;;;;;;5007644;28;19933;-68
2023/05/17 00:58:41;;;;;;;;;;;8.10;99.90;;;;;;5007594;28;19925;-68
2023/05/17 01:01:08;;;;;;;;;;;8.10;99.90;;;;;;5013666;28;19937;-68
2023/05/17 01:03:36;;;;;;;;;;;8.00;99.90;;;;;;5014190;28;19932;-68
2023/05/17 01:06:04;;;;;;;;;;;8.00;99.90;;;;;;5020883;28;19926;-69
2023/05/17 01:08:31;;;;;;;;;;;7.90;99.90;;;;;;5010356;28;19925;-68
2023/05/17 01:11:01;;;;;;;;;;;7.90;99.90;;;;;;5017839;28;19930;-68
2023/05/17 01:13:32;;;;;;;;;;;7.90;99.90;;;;;;5003546;28;19945;-69
2023/05/17 01:16:04;;;;;;;;;;;7.80;99.90;;;;;;5014342;28;19933;-68
2023/05/17 01:18:36;;;;;;;;;;;7.70;99.90;;;;;;5021857;28;19925;-68
2023/05/17 01:21:10;;;;;;;;;;;7.60;99.90;;;;;;5014883;28;19961;-69
2023/05/17 01:23:42;;;;;;;;;;;7.60;99.90;;;;;;5011700;28;19925;-69
2023/05/17 01:26:12;;;;;;;;;;;7.40;99.90;;;;;;5020726;28;19926;-68
2023/05/17 01:28:40;;;;;;;;;;;7.40;99.90;;;;;;5010580;28;19933;-68
2023/05/17 01:31:08;;;;;;;;;;;7.40;99.90;;;;;;5012973;28;20420;-68
2023/05/17 01:33:37;;;;;;;;;;;7.30;99.90;;;;;;5019565;28;19925;-68
2023/05/17 01:36:04;;;;;;;;;;;7.30;99.90;;;;;;5012978;28;19926;-69
2023/05/17 01:38:31;;;;;;;;;;;7.30;99.90;;;;;;5013745;28;20004;-67
2023/05/17 01:41:01;;;;;;;;;;;7.20;99.90;;;;;;5012507;28;19925;-69
2023/05/17 01:43:31;;;;;;;;;;;7.20;99.90;;;;;;5012334;28;20430;-68
2023/05/17 01:46:07;;;;;;;;;;;7.20;99.90;;;;;;5023487;28;19929;-68
2023/05/17 01:48:36;;;;;;;;;;;7.20;99.90;;;;;;5027854;28;20420;-68
2023/05/17 01:51:03;;;;;;;;;;;7.10;99.90;;;;;;5009792;28;19932;-68
2023/05/17 01:53:31;;;;;;;;;;;7.10;99.90;;;;;;5010372;28;19926;-69
2023/05/17 01:56:03;;;;;;;;;;;7.10;99.90;;;;;;5011842;28;19929;-70
2023/05/17 01:58:30;;;;;;;;;;;7.00;99.90;;;;;;5022035;28;19933;-68
2023/05/17 02:01:00;;;;;;;;;;;7.00;99.90;;;;;;5014298;28;20379;-68
2023/05/17 02:03:29;;;;;;;;;;;6.90;99.90;;;;;;5023352;28;19926;-68
2023/05/17 02:05:56;;;;;;;;;;;6.80;99.90;;;;;;5016667;28;19933;-68
2023/05/17 02:08:22;;;;;;;;;;;6.80;99.90;;;;;;5010815;28;19933;-67
2023/05/17 02:10:49;;;;;;;;;;;6.80;99.90;;;;;;5021818;28;19929;-68
2023/05/17 02:13:16;;;;;;;;;;;6.80;99.90;;;;;;5016190;28;19926;-67
2023/05/17 02:15:44;;;;;;;;;;;6.80;99.90;;;;;;5011817;28;20304;-68
2023/05/17 02:18:11;;;;;;;;;;;6.80;99.90;;;;;;5010727;28;19926;-68
2023/05/17 02:20:41;;;;;;;;;;;6.70;99.90;;;;;;5024891;28;19936;-68
2023/05/17 02:23:07;;;;;;;;;;;6.70;99.90;;;;;;5011749;28;19925;-68
2023/05/17 02:25:34;;;;;;;;;;;6.70;99.90;;;;;;5011834;28;19925;-68
2023/05/17 02:28:01;;;;;;;;;;;6.60;99.90;;;;;;5010404;28;19925;-68
2023/05/17 02:30:28;;;;;;;;;;;6.60;99.90;;;;;;5012413;28;19925;-67
2023/05/17 02:32:55;;;;;;;;;;;6.50;99.90;;;;;;5009574;28;19926;-68
2023/05/17 02:35:22;;;;;;;;;;;6.50;99.90;;;;;;5014343;28;19925;-68
2023/05/17 02:37:52;;;;;;;;;;;6.40;99.90;;;;;;5012332;28;19930;-68
2023/05/17 02:40:19;;;;;;;;;;;6.40;99.90;;;;;;5008929;28;19926;-68
2023/05/17 02:42:46;;;;;;;;;;;6.40;99.90;;;;;;5006331;28;19933;-68
2023/05/17 02:45:12;;;;;;;;;;;6.30;99.90;;;;;;5019299;28;19932;-67
2023/05/17 02:47:39;;;;;;;;;;;6.30;99.90;;;;;;5009819;28;19933;-68
2023/05/17 02:50:07;;;;;;;;;;;6.30;99.90;;;;;;5007529;28;19925;-68
2023/05/17 02:52:34;;;;;;;;;;;6.40;99.90;;;;;;5023342;28;20303;-68
2023/05/17 02:55:03;;;;;;;;;;;6.40;99.90;;;;;;5011483;28;19988;-68
2023/05/17 02:57:30;;;;;;;;;;;6.50;99.90;;;;;;5018153;28;19984;-68
2023/05/17 02:59:57;;;;;;;;;;;6.50;99.90;;;;;;5008892;28;19925;-68
2023/05/17 03:02:24;;;;;;;;;;;6.50;99.90;;;;;;5016770;28;19948;-69
2023/05/17 03:04:51;;;;;;;;;;;6.50;99.90;;;;;;5011129;28;20379;-69
2023/05/17 03:07:18;;;;;;;;;;;6.50;99.90;;;;;;5011473;28;19933;-68
2023/05/17 03:09:45;;;;;;;;;;;6.50;99.90;;;;;;5011219;28;19972;-68
2023/05/17 03:12:13;;;;;;;;;;;6.50;99.90;;;;;;5018047;28;19980;-68
2023/05/17 03:14:40;;;;;;;;;;;6.50;99.90;;;;;;5003232;28;19941;-68
2023/05/17 03:17:09;;;;;;;;;;;6.50;99.90;;;;;;5016179;28;19992;-67
2023/05/17 03:19:36;;;;;;;;;;;6.40;99.90;;;;;;5017504;28;19929;-68
2023/05/17 03:22:03;;;;;;;;;;;6.50;99.90;;;;;;5010636;28;20101;-68
2023/05/17 03:24:32;;;;;;;;;;;6.50;99.90;;;;;;5011149;28;20335;-68
2023/05/17 03:27:00;;;;;;;;;;;6.50;99.90;;;;;;5010668;28;19936;-68
2023/05/17 03:29:28;;;;;;;;;;;6.50;99.90;;;;;;5011240;28;19926;-68
2023/05/17 03:31:55;;;;;;;;;;;6.40;99.90;;;;;;5010861;28;20300;-67
2023/05/17 03:34:22;;;;;;;;;;;6.30;99.90;;;;;;5017471;28;20032;-68
2023/05/17 03:36:49;;;;;;;;;;;6.20;99.90;;;;;;5010548;28;20304;-69
2023/05/17 03:39:16;;;;;;;;;;;6.20;99.90;;;;;;5010660;28;19971;-68
2023/05/17 03:41:43;;;;;;;;;;;6.20;99.90;;;;;;5004588;28;19933;-68
2023/05/17 03:44:10;;;;;;;;;;;6.30;99.90;;;;;;5010601;28;19930;-69
2023/05/17 03:46:39;;;;;;;;;;;6.30;99.90;;;;;;5011027;28;19948;-69
2023/05/17 03:49:06;;;;;;;;;;;6.40;99.90;;;;;;5010912;28;19933;-68
2023/05/17 03:51:34;;;;;;;;;;;6.40;99.90;;;;;;5017102;28;19925;-69
2023/05/17 03:54:01;;;;;;;;;;;6.40;99.90;;;;;;5010459;28;20314;-68
2023/05/17 03:56:30;;;;;;;;;;;6.40;99.90;;;;;;5013436;28;20380;-69
2023/05/17 03:58:56;;;;;;;;;;;6.40;99.90;;;;;;5019427;28;19926;-69
2023/05/17 04:01:23;;;;;;;;;;;6.40;99.90;;;;;;5010841;28;19961;-69
2023/05/17 04:03:52;;;;;;;;;;;6.40;99.90;;;;;;5010462;28;20398;-69
2023/05/17 04:06:20;;;;;;;;;;;6.30;99.90;;;;;;5010424;28;19961;-69
2023/05/17 04:08:47;;;;;;;;;;;6.20;99.90;;;;;;5010672;28;19925;-69
2023/05/17 04:11:14;;;;;;;;;;;6.20;99.90;;;;;;5009549;28;20361;-68
2023/05/17 04:13:42;;;;;;;;;;;6.20;99.90;;;;;;5006967;28;19930;-68
2023/05/17 04:16:09;;;;;;;;;;;6.10;99.90;;;;;;5010393;28;19968;-68
2023/05/17 04:18:38;;;;;;;;;;;6.00;99.90;;;;;;5010572;28;19926;-68
2023/05/17 04:21:06;;;;;;;;;;;6.00;99.90;;;;;;5010591;28;19979;-69
2023/05/17 04:23:35;;;;;;;;;;;6.00;99.90;;;;;;5010096;28;19969;-68
2023/05/17 04:26:03;;;;;;;;;;;6.00;99.90;;;;;;5018046;28;19922;-67
2023/05/17 04:28:33;;;;;;;;;;;6.10;99.90;;;;;;5002410;28;19925;-67
2023/05/17 04:31:00;;;;;;;;;;;6.20;99.90;;;;;;5007469;28;19928;-70
2023/05/17 04:33:27;;;;;;;;;;;6.30;99.90;;;;;;5009744;28;19922;-69
2023/05/17 04:35:55;;;;;;;;;;;6.40;99.90;;;;;;5012990;28;19927;-71
2023/05/17 04:38:24;;;;;;;;;;;6.50;99.90;;;;;;5013602;28;20347;-70
2023/05/17 04:40:51;;;;;;;;;;;6.60;99.90;;;;;;5013598;28;19949;-70
2023/05/17 04:43:18;;;;;;;;;;;6.60;99.90;;;;;;5013586;28;20431;-70
2023/05/17 04:45:46;;;;;;;;;;;6.80;99.90;;;;;;5013757;28;19921;-70
2023/05/17 04:48:14;;;;;;;;;;;6.90;99.90;;;;;;5013522;28;20004;-70
2023/05/17 04:50:41;;;;;;;;;;;7.00;99.90;;;;;;5022876;28;19921;-71
2023/05/17 04:53:08;;;;;;;;;;;7.20;99.90;;;;;;5024886;28;19928;-71
2023/05/17 04:55:38;;;;;;;;;;;7.30;99.90;;;;;;5019668;28;19922;-70
2023/05/17 04:58:05;;;;;;;;;;;7.30;99.90;;;;;;5022482;28;20020;-70
2023/05/17 05:00:33;;;;;;;;;;;7.40;99.90;;;;;;5019629;28;19926;-71
2023/05/17 05:03:04;;;;;;;;;;;7.50;99.90;;;;;;5011523;28;19922;-71
2023/05/17 05:05:31;;;;;;;;;;;7.60;99.90;;;;;;5021377;28;19933;-70
2023/05/17 05:07:58;;;;;;;;;;;7.60;99.90;;;;;;5013238;28;19930;-71
2023/05/17 05:10:27;;;;;;;;;;;7.80;99.90;;;;;;5016047;28;19937;-71
2023/05/17 05:12:56;;;;;;;;;;;7.90;99.90;;;;;;5012225;28;19926;-69
2023/05/17 05:15:24;;;;;;;;;;;7.90;99.90;;;;;;5014609;28;19925;-69
2023/05/17 05:17:55;;;;;;;;;;;8.00;99.90;;;;;;5012137;28;19926;-68
2023/05/17 05:20:22;;;;;;;;;;;8.10;99.90;;;;;;5015824;28;19996;-68
2023/05/17 05:22:49;;;;;;;;;;;8.10;99.90;;;;;;5012228;28;20388;-69
2023/05/17 05:25:17;;;;;;;;;;;8.20;99.90;;;;;;5012886;28;19936;-69
2023/05/17 05:27:45;;;;;;;;;;;8.20;99.90;;;;;;5011264;28;19937;-71
2023/05/17 05:30:20;;;;;;;;;;;8.40;99.90;;;;;;5009728;28;19976;-68
2023/05/17 05:32:49;;;;;;;;;;;8.30;99.90;;;;;;5009070;28;20353;-69
2023/05/17 05:35:16;;;;;;;;;;;8.50;99.90;;;;;;5008584;28;20326;-69
2023/05/17 05:37:43;;;;;;;;;;;8.50;99.90;;;;;;5005953;28;20404;-69
2023/05/17 05:40:10;;;;;;;;;;;8.60;99.90;;;;;;5009366;28;19949;-68
2023/05/17 05:42:37;;;;;;;;;;;8.70;99.90;;;;;;5015871;28;19937;-69
2023/05/17 05:45:05;;;;;;;;;;;8.80;99.90;;;;;;5015416;28;20348;-71
2023/05/17 05:47:33;;;;;;;;;;;8.80;99.90;;;;;;5014216;28;19933;-69
2023/05/17 05:50:00;;;;;;;;;;;8.80;99.90;;;;;;5008163;28;19933;-69
2023/05/17 05:52:27;;;;;;;;;;;8.90;99.90;;;;;;5010051;28;20016;-69
2023/05/17 05:54:54;;;;;;;;;;;9.00;99.90;;;;;;5021102;28;19930;-70
2023/05/17 05:57:20;;;;;;;;;;;9.10;99.90;;;;;;5010909;28;19929;-68
2023/05/17 05:59:47;;;;;;;;;;;9.10;99.90;;;;;;5024587;28;19926;-69
2023/05/17 06:02:16;;;;;;;;;;;9.00;99.90;;;;;;5016098;28;20328;-68
2023/05/17 06:04:44;;;;;;;;;;;9.10;99.90;;;;;;5008976;28;19929;-71
2023/05/17 06:07:10;;;;;;;;;;;9.10;99.90;;;;;;5006538;28;20012;-71
2023/05/17 06:09:37;;;;;;;;;;;9.20;99.90;;;;;;5010737;28;19925;-69
2023/05/17 06:12:04;;;;;;;;;;;9.40;99.90;;;;;;5018532;28;19976;-68
2023/05/17 06:14:31;;;;;;;;;;;9.50;99.90;;;;;;5015650;28;19925;-70
2023/05/17 06:16:58;;;;;;;;;;;9.60;99.90;;;;;;5018567;28;20004;-69
2023/05/17 06:19:24;;;;;;;;;;;9.50;99.90;;;;;;5014564;28;19926;-69
2023/05/17 06:21:51;;;;;;;;;;;;;;;;;;5014290;28;19948;-70
2023/05/17 06:24:20;;;;;;;;;;;9.80;99.90;;;;;;5019997;28;20020;-70
2023/05/17 06:26:47;;;;;;;;;;;9.90;99.90;;;;;;5005688;28;20400;-70
2023/05/17 06:29:14;;;;;;;;;;;10.10;99.90;;;;;;5013728;28;19930;-69
2023/05/17 06:31:40;;;;;;;;;;;10.10;99.90;;;;;;5013865;28;19930;-69
2023/05/17 06:34:07;;;;;;;;;;;10.10;99.90;;;;;;5021497;28;19926;-69
2023/05/17 06:36:34;;;;;;;;;;;10.00;99.90;;;;;;5015462;28;19940;-71
2023/05/17 06:39:01;;;;;;;;;;;10.20;99.90;;;;;;5006734;28;19931;-70
2023/05/17 06:41:29;;;;;;;;;;;10.30;99.90;;;;;;5014178;28;19973;-68
2023/05/17 06:43:56;;;;;;;;;;;10.40;99.90;;;;;;5018311;28;20311;-69
2023/05/17 06:46:23;;;;;;;;;;;10.50;99.90;;;;;;5015704;28;19925;-69
2023/05/17 06:48:49;;;;;;;;;;;10.70;99.90;;;;;;5008752;28;19925;-70
2023/05/17 06:51:16;;;;;;;;;;;10.70;99.90;;;;;;5012393;28;19925;-69
2023/05/17 06:53:43;;;;;;;;;;;10.80;99.90;;;;;;5008706;28;19929;-69
2023/05/17 06:56:10;;;;;;;;;;;10.90;99.90;;;;;;5010653;28;19926;-69
2023/05/17 06:58:38;;;;;;;;;;;10.90;99.90;;;;;;5014414;28;19996;-70
2023/05/17 07:01:05;;;;;;;;;;;10.90;99.90;;;;;;5008102;28;19956;-69
2023/05/17 07:03:31;;;;;;;;;;;11.10;99.90;;;;;;5009931;28;19932;-71
2023/05/17 07:05:58;;;;;;;;;;;11.30;99.90;;;;;;5015636;28;19933;-69
2023/05/17 07:08:25;;;;;;;;;;;11.30;99.90;;;;;;5004408;28;20395;-69
2023/05/17 07:10:52;;;;;;;;;;;11.30;99.90;;;;;;5009764;28;20024;-70
2023/05/17 07:13:18;;;;;;;;;;;11.50;99.90;;;;;;5008329;28;20321;-70
2023/05/17 07:15:46;;;;;;;;;;;11.60;99.90;;;;;;5014023;28;19926;-69
2023/05/17 07:18:13;;;;;;;;;;;11.60;99.90;;;;;;5010130;28;20304;-69
2023/05/17 07:20:40;;;;;;;;;;;11.50;99.90;;;;;;5013955;28;19925;-69
2023/05/17 07:23:07;;;;;;;;;;;11.60;99.90;;;;;;5002268;28;20384;-69
2023/05/17 07:25:37;;;;;;;;;;;11.60;99.90;;;;;;5013219;28;19933;-69
2023/05/17 07:28:04;;;;;;;;;;;11.70;99.90;;;;;;5010273;28;19929;-69
2023/05/17 07:30:31;;;;;;;;;;;11.80;99.90;;;;;;5009791;28;19925;-71
2023/05/17 07:32:59;;;;;;;;;;;11.90;99.90;;;;;;5013446;28;19925;-71
2023/05/17 07:35:26;;;;;;;;;;;12.00;99.90;;;;;;5013902;28;19926;-70
2023/05/17 07:37:52;;;;;;;;;;;12.00;99.90;;;;;;5006378;28;20391;-69
2023/05/17 07:40:20;;;;;;;;;;;12.00;99.90;;;;;;5014600;28;19925;-69
2023/05/17 07:42:47;;;;;;;;;;;12.00;99.90;;;;;;5006089;28;19932;-69
2023/05/17 07:45:14;;;;;;;;;;;12.10;99.90;;;;;;5009810;28;19930;-70
2023/05/17 07:47:41;;;;;;;;;;;12.10;99.90;;;;;;5009711;28;19948;-69
2023/05/17 07:50:09;;;;;;;;;;;12.20;99.90;;;;;;5018281;28;19952;-69
2023/05/17 07:52:36;;;;;;;;;;;12.30;99.90;;;;;;5014462;28;19936;-69
2023/05/17 07:55:04;;;;;;;;;;;12.40;99.90;;;;;;5012892;28;19932;-69
2023/05/17 07:57:31;;;;;;;;;;;12.40;99.90;;;;;;5014288;28;19979;-69
2023/05/17 07:59:58;;;;;;;;;;;12.40;99.90;;;;;;5006736;28;19925;-69
2023/05/17 08:02:24;;;;;;;;;;;12.50;99.90;;;;;;5017725;28;19925;-69
2023/05/17 08:04:51;;;;;;;;;;;12.50;99.90;;;;;;5013743;28;19932;-69
2023/05/17 08:07:19;;;;;;;;;;;12.50;99.90;;;;;;5014043;28;20304;-70
2023/05/17 08:09:46;;;;;;;;;;;12.70;99.90;;;;;;5026345;28;20020;-70
2023/05/17 08:12:13;;;;;;;;;;;12.80;99.90;;;;;;5020855;28;19926;-70
2023/05/17 08:14:40;;;;;;;;;;;13.00;99.90;;;;;;5013011;28;19926;-69
2023/05/17 08:17:06;;;;;;;;;;;13.30;99.90;;;;;;5013580;28;19932;-69
2023/05/17 08:19:33;;;;;;;;;;;13.30;99.90;;;;;;5020249;28;19957;-69
2023/05/17 08:22:00;;;;;;;;;;;13.30;99.90;;;;;;5010925;28;19932;-69
2023/05/17 08:24:28;;;;;;;;;;;13.20;99.90;;;;;;5013041;28;19933;-69
2023/05/17 08:26:55;;;;;;;;;;;13.10;99.90;;;;;;5017101;28;20311;-69
2023/05/17 08:29:22;;;;;;;;;;;13.10;99.90;;;;;;5012893;28;19949;-69
2023/05/17 08:31:48;;;;;;;;;;;13.20;99.90;;;;;;5004489;28;20023;-70
2023/05/17 08:34:15;;;;;;;;;;;13.40;99.90;;;;;;5015928;28;19926;-69
2023/05/17 08:36:43;;;;;;;;;;;13.50;99.90;;;;;;5016999;28;19926;-70
2023/05/17 08:39:11;;;;;;;;;;;13.60;99.90;;;;;;5009544;28;20036;-69
2023/05/17 08:41:39;;;;;;;;;;;13.50;99.90;;;;;;5012850;28;19929;-69
2023/05/17 08:44:06;;;;;;;;;;;13.60;99.90;;;;;;5009510;28;19961;-69
2023/05/17 08:46:33;;;;;;;;;;;13.70;99.90;;;;;;5024988;28;20012;-70
2023/05/17 08:49:00;;;;;;;;;;;13.80;99.90;;;;;;5016251;28;19934;-69
2023/05/17 08:51:27;;;;;;;;;;;13.80;99.90;;;;;;5009213;28;20404;-70
2023/05/17 08:53:54;;;;;;;;;;;13.70;99.90;;;;;;5010782;28;19930;-69
2023/05/17 08:56:23;;;;;;;;;;;13.60;99.90;;;;;;5016667;28;20504;-69
2023/05/17 08:58:55;;;;;;;;;;;13.80;99.90;;;;;;5021346;28;19926;-69
2023/05/17 09:01:22;;;;;;;;;;;13.90;99.90;;;;;;5019733;28;20423;-70
2023/05/17 09:03:49;;;;;;;;;;;14.10;99.90;;;;;;5012918;28;19926;-69
2023/05/17 09:06:17;;;;;;;;;;;14.10;99.90;;;;;;5012265;28;19944;-70
2023/05/17 09:08:44;;;;;;;;;;;14.10;99.90;;;;;;5017519;28;19926;-70
2023/05/17 09:11:11;;;;;;;;;;;14.30;99.90;;;;;;5016939;28;19932;-69
2023/05/17 09:13:38;;;;;;;;;;;14.20;99.90;;;;;;5012316;28;20032;-69
2023/05/17 09:16:12;;;;;;;;;;;14.30;99.90;;;;;;5011006;28;20003;-70
2023/05/17 09:18:39;;;;;;;;;;;14.10;99.90;;;;;;5011109;28;19932;-69
2023/05/17 09:21:05;;;;;;;;;;;14.10;99.90;;;;;;5017000;28;19933;-69
2023/05/17 09:23:33;;;;;;;;;;;14.00;99.90;;;;;;5010946;28;19933;-71
2023/05/17 09:26:07;;;;;;;;;;;14.00;99.90;;;;;;5008971;28;20351;-69
2023/05/17 09:28:37;;;;;;;;;;;14.10;99.90;;;;;;5011463;28;19933;-69
2023/05/17 09:31:07;;;;;;;;;;;14.10;99.90;;;;;;5016882;28;19936;-69
2023/05/17 09:33:34;;;;;;;;;;;14.00;99.90;;;;;;5011527;28;19929;-70
2023/05/17 09:36:01;;;;;;;;;;;14.10;99.90;;;;;;5010476;28;20016;-70
2023/05/17 09:38:29;;;;;;;;;;;14.10;99.90;;;;;;5012347;28;19925;-70
2023/05/17 09:40:56;;;;;;;;;;;14.00;99.90;;;;;;5026239;28;19937;-70
2023/05/17 09:43:24;;;;;;;;;;;14.20;99.90;;;;;;5006799;28;19926;-70
2023/05/17 09:45:55;;;;;;;;;;;14.40;99.90;;;;;;5019130;28;19932;-70
2023/05/17 09:48:25;;;;;;;;;;;14.30;99.90;;;;;;5011834;28;20384;-70
2023/05/17 09:50:52;;;;;;;;;;;14.30;99.90;;;;;;5015886;28;19925;-69
2023/05/17 09:53:26;;;;;;;;;;;14.50;99.90;;;;;;5014677;28;19930;-70
2023/05/17 09:55:53;;;;;;;;;;;14.70;99.90;;;;;;5016674;28;20024;-70
2023/05/17 09:58:21;;;;;;;;;;;14.70;99.90;;;;;;5010639;28;19972;-72
2023/05/17 10:00:50;;;;;;;;;;;14.60;99.90;;;;;;5016338;28;20030;-69
2023/05/17 10:03:17;;;;;;;;;;;14.70;99.90;;;;;;5014325;28;19933;-69
2023/05/17 10:05:46;;;;;;;;;;;14.60;99.90;;;;;;5021821;28;20007;-68
2023/05/17 10:08:14;;;;;;;;;;;14.70;99.90;;;;;;5023836;28;19933;-71
2023/05/17 10:10:41;;;;;;;;;;;15.00;99.90;;;;;;5009190;28;19931;-69
2023/05/17 10:13:09;;;;;;;;;;;15.30;99.90;;;;;;5016682;28;20388;-70
2023/05/17 10:15:37;;;;;;;;;;;15.30;99.90;;;;;;5016373;28;19953;-69
2023/05/17 10:18:05;;;;;;;;;;;14.90;99.90;;;;;;5014419;28;19929;-69
2023/05/17 10:20:32;;;;;;;;;;;15.00;99.90;;;;;;5010924;28;19940;-69
2023/05/17 10:23:02;;;;;;;;;;;15.30;99.90;;;;;;5010805;28;19932;-69
2023/05/17 10:25:29;;;;;;;;;;;15.00;99.90;;;;;;5019401;28;19983;-69
2023/05/17 10:27:57;;;;;;;;;;;14.90;99.90;;;;;;5010883;28;20385;-69
2023/05/17 10:30:25;;;;;;;;;;;14.70;99.90;;;;;;5016483;28;19987;-72
2023/05/17 10:32:52;;;;;;;;;;;14.70;99.90;;;;;;5010379;28;19925;-72
2023/05/17 10:35:19;;;;;;;;;;;14.90;99.90;;;;;;5013847;28;20385;-69
2023/05/17 10:37:46;;;;;;;;;;;15.00;99.90;;;;;;5010829;28;19936;-72
2023/05/17 10:40:16;;;;;;;;;;;15.30;99.90;;;;;;5018848;28;19925;-68
2023/05/17 10:42:44;;;;;;;;;;;15.30;99.90;;;;;;5021132;28;19925;-69
2023/05/17 10:45:12;;;;;;;;;;;15.50;99.90;;;;;;5014796;28;20332;-70
2023/05/17 10:47:40;;;;;;;;;;;15.70;99.90;;;;;;5007254;28;19932;-72
2023/05/17 10:50:10;;;;;;;;;;;15.80;99.90;;;;;;5007951;28;19932;-72
2023/05/17 10:52:38;;;;;;;;;;;15.90;99.90;;;;;;5013389;28;19979;-69
2023/05/17 10:55:07;;;;;;;;;;;16.20;99.90;;;;;;5013267;28;19929;-71
2023/05/17 10:57:36;;;;;;;;;;;16.20;99.90;;;;;;5010270;28;20459;-69
2023/05/17 11:00:06;;;;;;;;;;;16.40;99.90;;;;;;5012901;28;20344;-70
2023/05/17 11:02:33;;;;;;;;;;;16.70;99.90;;;;;;5015115;28;20028;-71
2023/05/17 11:05:01;;;;;;;;;;;17.10;99.90;;;;;;5016392;28;20028;-70
2023/05/17 11:07:30;;;;;;;;;;;17.40;99.90;;;;;;5021717;28;19925;-70
2023/05/17 11:10:04;;;;;;;;;;;17.40;99.90;;;;;;5018166;28;20304;-71
2023/05/17 11:12:33;;;;;;;;;;;17.30;99.90;;;;;;5018093;28;20427;-69
2023/05/17 11:15:04;;;;;;;;;;;17.10;99.90;;;;;;5003107;28;19997;-70
2023/05/17 11:17:34;;;;;;;;;;;16.90;99.90;;;;;;5010481;28;20423;-70
2023/05/17 11:20:01;;;;;;;;;;;17.10;99.90;;;;;;5016739;28;20383;-69
2023/05/17 11:22:33;;;;;;;;;;;17.60;99.90;;;;;;5013130;28;20024;-70
2023/05/17 11:25:01;;;;;;;;;;;17.90;99.90;;;;;;5006004;28;20012;-71
2023/05/17 11:27:35;;;;;;;;;;;17.50;99.90;;;;;;5017844;28;19925;-71
2023/05/17 11:30:09;;;;;;;;;;;17.00;99.90;;;;;;5010390;28;19984;-69
2023/05/17 11:32:35;;;;;;;;;;;16.90;99.90;;;;;;5009457;28;20166;-70
2023/05/17 11:35:02;;;;;;;;;;;18.10;99.90;;;;;;5009735;28;20043;-71
2023/05/17 11:37:30;;;;;;;;;;;18.80;99.90;;;;;;5023793;28;20020;-69
2023/05/17 11:40:04;;;;;;;;;;;19.40;99.90;;;;;;5009593;28;20381;-70
2023/05/17 11:42:31;;;;;;;;;;;20.40;99.90;;;;;;5001984;28;19980;-70
2023/05/17 11:44:58;;;;;;;;;;;;;;;;;;5010154;28;19962;-69
2023/05/17 11:47:26;;;;;;;;;;;19.80;99.90;;;;;;5007340;28;19932;-71
2023/05/17 11:49:54;;;;;;;;;;;19.10;99.90;;;;;;5012797;28;20380;-70
2023/05/17 11:52:21;;;;;;;;;;;19.50;99.90;;;;;;5016057;28;20378;-70
2023/05/17 11:54:48;;;;;;;;;;;21.10;99.90;;;;;;5013490;28;19926;-71
2023/05/17 11:57:16;;;;;;;;;;;22.60;99.90;;;;;;5013683;28;20052;-70
2023/05/17 11:59:43;;;;;;;;;;;24.00;99.90;;;;;;5016020;28;20393;-69
2023/05/17 12:02:10;;;;;;;;;;;25.30;99.90;;;;;;5018200;28;19998;-70
2023/05/17 12:04:38;;;;;;;;;;;25.70;99.90;;;;;;5013204;28;19936;-70
2023/05/17 12:07:08;;;;;;;;;;;25.20;99.90;;;;;;5026588;28;19925;-70
2023/05/17 12:09:35;;;;;;;;;;;25.00;99.90;;;;;;5022748;28;20383;-71
2023/05/17 12:12:02;;;;;;;;;;;24.70;99.90;;;;;;5023359;28;20012;-70
2023/05/17 12:14:29;;;;;;;;;;;24.40;99.90;;;;;;5013212;28;19953;-70
2023/05/17 12:16:57;;;;;;;;;;;24.50;99.90;;;;;;5022730;28;19929;-72
2023/05/17 12:19:26;;;;;;;;;;;24.00;99.90;;;;;;5027422;28;19926;-70
2023/05/17 12:22:05;;;;;;;;;;;22.90;99.90;;;;;;5012805;28;19937;-72
2023/05/17 12:24:36;;;;;;;;;;;21.60;99.90;;;;;;5018372;28;19930;-70
2023/05/17 12:27:03;;;;;;;;;;;21.10;99.90;;;;;;5011000;28;19941;-72
2023/05/17 12:29:29;;;;;;;;;;;21.00;99.90;;;;;;5016773;28;19965;-71
2023/05/17 12:31:56;;;;;;;;;;;20.50;99.90;;;;;;5006880;28;19995;-70
2023/05/17 12:34:23;;;;;;;;;;;21.10;99.90;;;;;;5012799;28;19925;-71
2023/05/17 12:36:51;;;;;;;;;;;22.60;99.90;;;;;;5006636;28;20320;-71
2023/05/17 12:39:22;;;;;;;;;;;23.80;99.90;;;;;;5008009;28;19926;-71
2023/05/17 12:41:49;;;;;;;;;;;24.60;99.90;;;;;;5010669;28;19926;-70
2023/05/17 12:44:17;;;;;;;;;;;24.60;99.90;;;;;;5012364;28;19939;-71
2023/05/17 12:46:44;;;;;;;;;;;23.80;99.90;;;;;;5012477;28;19932;-70
2023/05/17 12:49:11;;;;;;;;;;;22.90;99.90;;;;;;5018915;28;19939;-70
2023/05/17 12:51:42;;;;;;;;;;;23.60;99.90;;;;;;5006383;28;19933;-70
2023/05/17 12:54:09;;;;;;;;;;;24.10;99.90;;;;;;5020719;28;20016;-70
2023/05/17 12:56:37;;;;;;;;;;;24.30;99.90;;;;;;5017041;28;19979;-70
2023/05/17 12:59:05;;;;;;;;;;;25.00;99.90;;;;;;5012437;28;19926;-71
2023/05/17 13:01:35;;;;;;;;;;;25.10;99.90;;;;;;5014086;28;20063;-70
2023/05/17 13:04:02;;;;;;;;;;;25.30;99.90;;;;;;5012037;28;19925;-71
2023/05/17 13:06:29;;;;;;;;;;;25.50;99.90;;;;;;5011796;28;19983;-71
2023/05/17 13:08:59;;;;;;;;;;;25.40;99.90;;;;;;5012455;28;20450;-73
2023/05/17 13:11:26;;;;;;;;;;;24.70;99.90;;;;;;5010891;28;19976;-70
2023/05/17 13:13:54;;;;;;;;;;;24.40;99.90;;;;;;5008659;28;20301;-71
2023/05/17 13:16:27;;;;;;;;;;;24.90;99.90;;;;;;5010693;28;19940;-70
2023/05/17 13:18:55;;;;;;;;;;;25.70;99.90;;;;;;5017208;28;20024;-71
2023/05/17 13:21:22;;;;;;;;;;;25.20;99.90;;;;;;5024402;28;19925;-71
2023/05/17 13:23:49;;;;;;;;;;;26.10;99.90;;;;;;5011861;28;19929;-71
2023/05/17 13:26:17;;;;;;;;;;;26.50;99.90;;;;;;5011620;28;19926;-71
2023/05/17 13:28:44;;;;;;;;;;;26.40;99.90;;;;;;5022817;28;19941;-73
2023/05/17 13:31:12;;;;;;;;;;;25.60;99.90;;;;;;5013499;28;19926;-71
2023/05/17 13:33:39;;;;;;;;;;;24.90;99.90;;;;;;5009768;28;19932;-71
2023/05/17 13:36:06;;;;;;;;;;;25.10;99.90;;;;;;5018608;28;19926;-71
2023/05/17 13:38:33;;;;;;;;;;;25.20;99.90;;;;;;5018539;28;19926;-71
2023/05/17 13:41:00;;;;;;;;;;;25.70;99.90;;;;;;5002505;28;20401;-71
2023/05/17 13:43:27;;;;;;;;;;;26.00;99.90;;;;;;5026421;28;20396;-69
2023/05/17 13:45:57;;;;;;;;;;;25.70;99.90;;;;;;5019523;28;19972;-71
2023/05/17 13:48:25;;;;;;;;;;;24.00;99.90;;;;;;5019138;28;20312;-71
2023/05/17 13:50:52;;;;;;;;;;;23.70;99.90;;;;;;5011393;28;19932;-71
2023/05/17 13:53:19;;;;;;;;;;;24.50;99.90;;;;;;5019329;28;20372;-72
2023/05/17 13:55:46;;;;;;;;;;;24.80;99.90;;;;;;5018481;28;19925;-72
2023/05/17 13:58:13;;;;;;;;;;;25.50;99.90;;;;;;5019008;28;19968;-70
2023/05/17 14:00:41;;;;;;;;;;;25.40;99.90;;;;;;5019343;28;19925;-71
2023/05/17 14:03:08;;;;;;;;;;;24.80;99.90;;;;;;5017179;28;20039;-73
2023/05/17 14:05:36;;;;;;;;;;;23.50;99.90;;;;;;5012123;28;19925;-70
2023/05/17 14:08:03;;;;;;;;;;;23.40;99.90;;;;;;5003752;28;20455;-70
2023/05/17 14:10:30;;;;;;;;;;;24.00;99.90;;;;;;5010911;28;20287;-71
2023/05/17 14:12:56;;;;;;;;;;;25.40;99.90;;;;;;5023593;28;19926;-73
2023/05/17 14:15:24;;;;;;;;;;;26.30;99.90;;;;;;5010966;28;19933;-71
2023/05/17 14:17:50;;;;;;;;;;;27.30;99.90;;;;;;5010772;28;19933;-73
2023/05/17 14:20:17;;;;;;;;;;;27.10;99.90;;;;;;5013897;28;19929;-71
2023/05/17 14:22:45;;;;;;;;;;;27.50;99.90;;;;;;5010472;28;19926;-73
2023/05/17 14:25:12;;;;;;;;;;;27.40;99.90;;;;;;5012663;28;19932;-73
2023/05/17 14:27:39;;;;;;;;;;;27.00;99.90;;;;;;5018837;28;19926;-71